sensor_id;sensor_type;location;lat;lon;timestamp;temperature;humidity
6690;DHT22;3382;51.576;8.076;2023-04-03T00:01:07;3.80;99.90
6690;DHT22;3382;51.576;8.076;2023-04-03T00:03:33;3.80;99.90
6690;DHT22;3382;51.576;8.076;2023-04-03T00:05:59;3.80;99.90
6690;DHT22;3382;51.576;8.076;2023-04-03T00:08:24;3.80;99.90
6690;DHT22;3382;51.576;8.076;2023-04-03T00:10:50;3.70;99.90
6690;DHT22;3382;51.576;8.076;2023-04-03T00:13:16;3.70;99.90
6690;DHT22;3382;51.576;8.076;2023-04-03T00:15:42;3.70;99.90
6690;DHT22;3382;51.576;8.076;2023-04-03T00:18:08;3.70;99.90
6690;DHT22;3382;51.576;8.076;2023-04-03T00:20:34;3.70;99.90
6690;DHT22;3382;51.576;8.076;2023-04-03T00:23:00;3.70;99.90
6690;DHT22;3382;51.576;8.076;2023-04-03T00:25:27;3.80;99.90
6690;DHT22;3382;51.576;8.076;2023-04-03T00:27:52;3.70;99.90
6690;DHT22;3382;51.576;8.076;2023-04-03T00:30:20;3.70;99.90
6690;DHT22;3382;51.576;8.076;2023-04-03T00:32:48;3.70;99.90
6690;DHT22;3382;51.576;8.076;2023-04-03T00:35:14;3.70;99.90
6690;DHT22;3382;51.576;8.076;2023-04-03T00:37:41;3.60;99.90
6690;DHT22;3382;51.576;8.076;2023-04-03T00:40:08;3.70;99.90
6690;DHT22;3382;51.576;8.076;2023-04-03T00:42:36;3.70;99.90
6690;DHT22;3382;51.576;8.076;2023-04-03T00:47:27;3.70;99.90
6690;DHT22;3382;51.576;8.076;2023-04-03T00:49:54;3.70;99.90
6690;DHT22;3382;51.576;8.076;2023-04-03T00:52:22;3.70;99.90
6690;DHT22;3382;51.576;8.076;2023-04-03T00:54:50;3.70;99.90
6690;DHT22;3382;51.576;8.076;2023-04-03T00:57:17;3.60;99.90
6690;DHT22;3382;51.576;8.076;2023-04-03T00:59:48;3.60;99.90
6690;DHT22;3382;51.576;8.076;2023-04-03T01:02:15;3.50;99.90
6690;DHT22;3382;51.576;8.076;2023-04-03T01:04:42;3.50;99.90
6690;DHT22;3382;51.576;8.076;2023-04-03T01:07:21;3.40;99.90
6690;DHT22;3382;51.576;8.076;2023-04-03T01:09:48;3.40;99.90
6690;DHT22;3382;51.576;8.076;2023-04-03T01:14:52;3.30;99.90
6690;DHT22;3382;51.576;8.076;2023-04-03T01:25:34;3.30;99.90
6690;DHT22;3382;51.576;8.076;2023-04-03T01:28:00;3.20;99.90
6690;DHT22;3382;51.576;8.076;2023-04-03T01:30:32;3.30;99.90
6690;DHT22;3382;51.576;8.076;2023-04-03T01:32:57;3.20;99.90
6690;DHT22;3382;51.576;8.076;2023-04-03T01:35:23;3.10;99.90
6690;DHT22;3382;51.576;8.076;2023-04-03T01:37:49;3.10;99.90
6690;DHT22;3382;51.576;8.076;2023-04-03T01:40:15;3.10;99.90
6690;DHT22;3382;51.576;8.076;2023-04-03T01:42:40;3.10;99.90
6690;DHT22;3382;51.576;8.076;2023-04-03T01:45:06;3.10;99.90
6690;DHT22;3382;51.576;8.076;2023-04-03T01:47:32;3.00;99.90
6690;DHT22;3382;51.576;8.076;2023-04-03T01:49:58;3.00;99.90
6690;DHT22;3382;51.576;8.076;2023-04-03T01:52:23;3.00;99.90
6690;DHT22;3382;51.576;8.076;2023-04-03T01:54:49;3.00;99.90
6690;DHT22;3382;51.576;8.076;2023-04-03T01:57:16;2.90;99.90
6690;DHT22;3382;51.576;8.076;2023-04-03T01:59:42;2.90;99.90
6690;DHT22;3382;51.576;8.076;2023-04-03T02:02:07;2.90;99.90
6690;DHT22;3382;51.576;8.076;2023-04-03T02:04:33;2.90;99.90
6690;DHT22;3382;51.576;8.076;2023-04-03T02:06:59;2.90;99.90
6690;DHT22;3382;51.576;8.076;2023-04-03T02:09:24;2.90;99.90
6690;DHT22;3382;51.576;8.076;2023-04-03T02:11:52;2.90;99.90
6690;DHT22;3382;51.576;8.076;2023-04-03T02:14:17;2.90;99.90
6690;DHT22;3382;51.576;8.076;2023-04-03T02:16:43;2.90;99.90
6690;DHT22;3382;51.576;8.076;2023-04-03T02:19:08;2.80;99.90
6690;DHT22;3382;51.576;8.076;2023-04-03T02:21:34;2.80;99.90
6690;DHT22;3382;51.576;8.076;2023-04-03T02:24:00;2.80;99.90
6690;DHT22;3382;51.576;8.076;2023-04-03T02:26:25;2.80;99.90
6690;DHT22;3382;51.576;8.076;2023-04-03T02:28:51;2.80;99.90
6690;DHT22;3382;51.576;8.076;2023-04-03T02:31:17;2.80;99.90
6690;DHT22;3382;51.576;8.076;2023-04-03T02:33:43;2.80;99.90
6690;DHT22;3382;51.576;8.076;2023-04-03T02:36:08;2.70;99.90
6690;DHT22;3382;51.576;8.076;2023-04-03T02:38:34;2.70;99.90
6690;DHT22;3382;51.576;8.076;2023-04-03T02:41:04;2.70;99.90
6690;DHT22;3382;51.576;8.076;2023-04-03T02:43:30;2.80;99.90
6690;DHT22;3382;51.576;8.076;2023-04-03T02:45:56;2.80;99.90
6690;DHT22;3382;51.576;8.076;2023-04-03T02:48:22;2.80;99.90
6690;DHT22;3382;51.576;8.076;2023-04-03T02:50:48;2.80;99.90
6690;DHT22;3382;51.576;8.076;2023-04-03T02:53:13;2.80;99.90
6690;DHT22;3382;51.576;8.076;2023-04-03T02:55:39;2.80;99.90
6690;DHT22;3382;51.576;8.076;2023-04-03T02:58:05;2.80;99.90
6690;DHT22;3382;51.576;8.076;2023-04-03T03:00:31;2.70;99.90
6690;DHT22;3382;51.576;8.076;2023-04-03T03:02:56;2.70;99.90
6690;DHT22;3382;51.576;8.076;2023-04-03T03:05:22;2.70;99.90
6690;DHT22;3382;51.576;8.076;2023-04-03T03:07:48;2.70;99.90
6690;DHT22;3382;51.576;8.076;2023-04-03T03:10:13;2.70;99.90
6690;DHT22;3382;51.576;8.076;2023-04-03T03:12:40;2.70;99.90
6690;DHT22;3382;51.576;8.076;2023-04-03T03:15:06;2.70;99.90
6690;DHT22;3382;51.576;8.076;2023-04-03T03:17:32;2.70;99.90
6690;DHT22;3382;51.576;8.076;2023-04-03T03:19:57;2.60;99.90
6690;DHT22;3382;51.576;8.076;2023-04-03T03:22:23;3.20;99.90
6690;DHT22;3382;51.576;8.076;2023-04-03T03:24:49;2.60;99.90
6690;DHT22;3382;51.576;8.076;2023-04-03T03:27:14;2.60;99.90
6690;DHT22;3382;51.576;8.076;2023-04-03T03:29:41;2.60;99.90
6690;DHT22;3382;51.576;8.076;2023-04-03T03:32:07;2.60;99.90
6690;DHT22;3382;51.576;8.076;2023-04-03T03:34:33;2.60;99.90
6690;DHT22;3382;51.576;8.076;2023-04-03T03:36:58;2.60;99.90
6690;DHT22;3382;51.576;8.076;2023-04-03T03:39:24;2.60;99.90
6690;DHT22;3382;51.576;8.076;2023-04-03T03:41:50;2.50;99.90
6690;DHT22;3382;51.576;8.076;2023-04-03T03:44:15;2.50;99.90
6690;DHT22;3382;51.576;8.076;2023-04-03T03:46:41;2.50;99.90
6690;DHT22;3382;51.576;8.076;2023-04-03T03:49:07;2.50;99.90
6690;DHT22;3382;51.576;8.076;2023-04-03T03:51:32;2.40;99.90
6690;DHT22;3382;51.576;8.076;2023-04-03T03:53:58;2.40;99.90
6690;DHT22;3382;51.576;8.076;2023-04-03T03:56:23;2.40;99.90
6690;DHT22;3382;51.576;8.076;2023-04-03T03:58:49;2.40;99.90
6690;DHT22;3382;51.576;8.076;2023-04-03T04:01:15;2.30;99.90
6690;DHT22;3382;51.576;8.076;2023-04-03T04:03:42;2.30;99.90
6690;DHT22;3382;51.576;8.076;2023-04-03T04:06:07;2.30;99.90
6690;DHT22;3382;51.576;8.076;2023-04-03T04:08:33;2.30;99.90
6690;DHT22;3382;51.576;8.076;2023-04-03T04:10:59;2.30;99.90
6690;DHT22;3382;51.576;8.076;2023-04-03T04:13:24;2.30;99.90
6690;DHT22;3382;51.576;8.076;2023-04-03T04:15:50;2.30;99.90
6690;DHT22;3382;51.576;8.076;2023-04-03T04:18:16;2.30;99.90
6690;DHT22;3382;51.576;8.076;2023-04-03T04:20:45;2.30;99.90
6690;DHT22;3382;51.576;8.076;2023-04-03T04:23:10;2.20;99.90
6690;DHT22;3382;51.576;8.076;2023-04-03T04:25:36;2.20;99.90
6690;DHT22;3382;51.576;8.076;2023-04-03T04:28:02;2.20;99.90
6690;DHT22;3382;51.576;8.076;2023-04-03T04:30:27;2.20;99.90
6690;DHT22;3382;51.576;8.076;2023-04-03T04:32:53;2.30;99.90
6690;DHT22;3382;51.576;8.076;2023-04-03T04:35:18;2.20;99.90
6690;DHT22;3382;51.576;8.076;2023-04-03T04:37:44;2.10;99.90
6690;DHT22;3382;51.576;8.076;2023-04-03T04:40:10;2.10;99.90
6690;DHT22;3382;51.576;8.076;2023-04-03T04:42:35;2.10;99.90
6690;DHT22;3382;51.576;8.076;2023-04-03T04:45:01;2.10;99.90
6690;DHT22;3382;51.576;8.076;2023-04-03T04:47:28;2.10;99.90
6690;DHT22;3382;51.576;8.076;2023-04-03T04:49:54;2.10;99.90
6690;DHT22;3382;51.576;8.076;2023-04-03T04:52:20;2.10;99.90
6690;DHT22;3382;51.576;8.076;2023-04-03T04:54:46;2.10;99.90
6690;DHT22;3382;51.576;8.076;2023-04-03T04:57:12;2.10;99.90
6690;DHT22;3382;51.576;8.076;2023-04-03T04:59:37;2.20;99.90
6690;DHT22;3382;51.576;8.076;2023-04-03T05:02:03;2.10;99.90
6690;DHT22;3382;51.576;8.076;2023-04-03T05:04:28;2.10;99.90
6690;DHT22;3382;51.576;8.076;2023-04-03T05:06:54;2.00;99.90
6690;DHT22;3382;51.576;8.076;2023-04-03T05:09:20;2.00;99.90
6690;DHT22;3382;51.576;8.076;2023-04-03T05:11:46;2.00;99.90
6690;DHT22;3382;51.576;8.076;2023-04-03T05:14:11;1.90;99.90
6690;DHT22;3382;51.576;8.076;2023-04-03T05:16:37;1.90;99.90
6690;DHT22;3382;51.576;8.076;2023-04-03T05:19:03;1.90;99.90
6690;DHT22;3382;51.576;8.076;2023-04-03T05:21:29;2.00;99.90
6690;DHT22;3382;51.576;8.076;2023-04-03T05:24:00;2.00;99.90
6690;DHT22;3382;51.576;8.076;2023-04-03T05:26:29;2.10;99.90
6690;DHT22;3382;51.576;8.076;2023-04-03T05:28:55;2.20;99.90
6690;DHT22;3382;51.576;8.076;2023-04-03T05:31:20;2.20;99.90
6690;DHT22;3382;51.576;8.076;2023-04-03T05:33:46;2.20;99.90
6690;DHT22;3382;51.576;8.076;2023-04-03T05:36:12;2.30;99.90
6690;DHT22;3382;51.576;8.076;2023-04-03T05:38:38;2.30;99.90
6690;DHT22;3382;51.576;8.076;2023-04-03T05:41:05;2.30;99.90
6690;DHT22;3382;51.576;8.076;2023-04-03T05:43:31;2.20;99.90
6690;DHT22;3382;51.576;8.076;2023-04-03T05:45:57;2.30;99.90
6690;DHT22;3382;51.576;8.076;2023-04-03T05:48:22;2.80;99.90
6690;DHT22;3382;51.576;8.076;2023-04-03T05:50:48;3.00;99.90
6690;DHT22;3382;51.576;8.076;2023-04-03T05:53:21;3.10;99.90
6690;DHT22;3382;51.576;8.076;2023-04-03T05:55:47;2.90;99.90
6690;DHT22;3382;51.576;8.076;2023-04-03T05:58:13;2.90;99.90
6690;DHT22;3382;51.576;8.076;2023-04-03T06:00:39;3.10;99.90
6690;DHT22;3382;51.576;8.076;2023-04-03T06:03:05;3.10;99.90
6690;DHT22;3382;51.576;8.076;2023-04-03T06:05:31;3.10;99.90
6690;DHT22;3382;51.576;8.076;2023-04-03T06:07:57;3.30;99.90
6690;DHT22;3382;51.576;8.076;2023-04-03T06:10:23;3.40;99.90
6690;DHT22;3382;51.576;8.076;2023-04-03T06:12:49;3.70;99.90
6690;DHT22;3382;51.576;8.076;2023-04-03T06:15:15;3.80;99.90
6690;DHT22;3382;51.576;8.076;2023-04-03T06:17:42;3.90;99.90
6690;DHT22;3382;51.576;8.076;2023-04-03T06:20:08;4.10;99.90
6690;DHT22;3382;51.576;8.076;2023-04-03T06:22:35;4.10;99.90
6690;DHT22;3382;51.576;8.076;2023-04-03T06:25:01;4.00;99.90
6690;DHT22;3382;51.576;8.076;2023-04-03T06:27:26;3.90;99.90
6690;DHT22;3382;51.576;8.076;2023-04-03T06:29:52;3.80;99.90
6690;DHT22;3382;51.576;8.076;2023-04-03T06:32:18;3.80;99.90
6690;DHT22;3382;51.576;8.076;2023-04-03T06:34:43;3.90;99.90
6690;DHT22;3382;51.576;8.076;2023-04-03T06:37:20;3.80;99.90
6690;DHT22;3382;51.576;8.076;2023-04-03T06:39:47;3.80;99.90
6690;DHT22;3382;51.576;8.076;2023-04-03T06:42:12;3.70;99.90
6690;DHT22;3382;51.576;8.076;2023-04-03T06:44:38;3.70;99.90
6690;DHT22;3382;51.576;8.076;2023-04-03T06:47:04;3.60;99.90
6690;DHT22;3382;51.576;8.076;2023-04-03T06:49:31;3.40;99.90
6690;DHT22;3382;51.576;8.076;2023-04-03T06:51:57;3.30;99.90
6690;DHT22;3382;51.576;8.076;2023-04-03T06:54:23;3.30;99.90
6690;DHT22;3382;51.576;8.076;2023-04-03T06:56:49;3.40;99.90
6690;DHT22;3382;51.576;8.076;2023-04-03T06:59:14;3.20;99.90
6690;DHT22;3382;51.576;8.076;2023-04-03T07:01:40;3.40;99.90
6690;DHT22;3382;51.576;8.076;2023-04-03T07:04:06;3.40;99.90
6690;DHT22;3382;51.576;8.076;2023-04-03T07:06:33;3.30;99.90
6690;DHT22;3382;51.576;8.076;2023-04-03T07:08:59;3.30;99.90
6690;DHT22;3382;51.576;8.076;2023-04-03T07:11:25;3.40;99.90
6690;DHT22;3382;51.576;8.076;2023-04-03T07:13:51;3.60;99.90
6690;DHT22;3382;51.576;8.076;2023-04-03T07:16:17;3.70;99.90
6690;DHT22;3382;51.576;8.076;2023-04-03T07:18:43;3.70;99.90
6690;DHT22;3382;51.576;8.076;2023-04-03T07:21:09;3.90;99.90
6690;DHT22;3382;51.576;8.076;2023-04-03T07:23:35;3.80;99.90
6690;DHT22;3382;51.576;8.076;2023-04-03T07:26:00;3.70;99.90
6690;DHT22;3382;51.576;8.076;2023-04-03T07:28:26;3.70;99.90
6690;DHT22;3382;51.576;8.076;2023-04-03T07:31:07;3.60;99.90
6690;DHT22;3382;51.576;8.076;2023-04-03T07:33:34;3.70;99.90
6690;DHT22;3382;51.576;8.076;2023-04-03T07:36:01;3.90;99.90
6690;DHT22;3382;51.576;8.076;2023-04-03T07:38:27;4.20;99.90
6690;DHT22;3382;51.576;8.076;2023-04-03T07:40:53;4.60;99.90
6690;DHT22;3382;51.576;8.076;2023-04-03T07:43:19;4.30;99.90
6690;DHT22;3382;51.576;8.076;2023-04-03T07:45:47;4.30;99.90
6690;DHT22;3382;51.576;8.076;2023-04-03T07:48:15;4.40;99.90
6690;DHT22;3382;51.576;8.076;2023-04-03T07:50:43;4.40;99.90
6690;DHT22;3382;51.576;8.076;2023-04-03T07:53:09;4.80;99.90
6690;DHT22;3382;51.576;8.076;2023-04-03T07:55:35;4.70;99.90
6690;DHT22;3382;51.576;8.076;2023-04-03T07:58:05;4.90;99.90
6690;DHT22;3382;51.576;8.076;2023-04-03T08:00:31;5.00;99.90
6690;DHT22;3382;51.576;8.076;2023-04-03T08:02:57;5.30;99.90
6690;DHT22;3382;51.576;8.076;2023-04-03T08:05:22;5.50;99.90
6690;DHT22;3382;51.576;8.076;2023-04-03T08:07:48;5.60;99.90
6690;DHT22;3382;51.576;8.076;2023-04-03T08:10:14;5.30;99.90
6690;DHT22;3382;51.576;8.076;2023-04-03T08:12:40;5.20;99.90
6690;DHT22;3382;51.576;8.076;2023-04-03T08:15:07;5.80;99.90
6690;DHT22;3382;51.576;8.076;2023-04-03T08:17:34;6.30;99.90
6690;DHT22;3382;51.576;8.076;2023-04-03T08:20:00;6.70;99.90
6690;DHT22;3382;51.576;8.076;2023-04-03T08:22:26;7.50;99.90
6690;DHT22;3382;51.576;8.076;2023-04-03T08:24:51;7.40;99.90
6690;DHT22;3382;51.576;8.076;2023-04-03T08:27:17;7.10;99.90
6690;DHT22;3382;51.576;8.076;2023-04-03T08:29:43;7.50;99.90
6690;DHT22;3382;51.576;8.076;2023-04-03T08:32:08;8.00;99.90
6690;DHT22;3382;51.576;8.076;2023-04-03T08:34:34;7.80;99.90
6690;DHT22;3382;51.576;8.076;2023-04-03T08:37:01;7.60;99.90
6690;DHT22;3382;51.576;8.076;2023-04-03T08:39:27;7.50;99.90
6690;DHT22;3382;51.576;8.076;2023-04-03T08:41:55;7.40;99.90
6690;DHT22;3382;51.576;8.076;2023-04-03T08:49:59;7.50;99.90
6690;DHT22;3382;51.576;8.076;2023-04-03T08:52:52;7.30;99.90
6690;DHT22;3382;51.576;8.076;2023-04-03T08:58:10;7.50;99.90
6690;DHT22;3382;51.576;8.076;2023-04-03T09:03:17;7.80;99.90
6690;DHT22;3382;51.576;8.076;2023-04-03T09:05:45;7.50;99.90
6690;DHT22;3382;51.576;8.076;2023-04-03T09:09:07;7.40;99.90
6690;DHT22;3382;51.576;8.076;2023-04-03T09:22:47;8.20;99.90
6690;DHT22;3382;51.576;8.076;2023-04-03T09:25:31;8.10;99.90
6690;DHT22;3382;51.576;8.076;2023-04-03T09:27:59;8.10;99.90
6690;DHT22;3382;51.576;8.076;2023-04-03T09:30:26;8.20;99.90
6690;DHT22;3382;51.576;8.076;2023-04-03T09:32:53;8.40;99.90
6690;DHT22;3382;51.576;8.076;2023-04-03T09:35:21;8.70;99.90
6690;DHT22;3382;51.576;8.076;2023-04-03T09:40:38;8.10;99.90
6690;DHT22;3382;51.576;8.076;2023-04-03T09:43:26;8.20;99.90
6690;DHT22;3382;51.576;8.076;2023-04-03T09:45:53;8.30;99.90
6690;DHT22;3382;51.576;8.076;2023-04-03T09:48:21;8.70;99.90
6690;DHT22;3382;51.576;8.076;2023-04-03T09:53:42;8.60;99.90
6690;DHT22;3382;51.576;8.076;2023-04-03T09:58:44;8.80;99.90
6690;DHT22;3382;51.576;8.076;2023-04-03T10:06:47;8.70;98.20
6690;DHT22;3382;51.576;8.076;2023-04-03T10:11:59;9.00;97.30
6690;DHT22;3382;51.576;8.076;2023-04-03T10:14:30;8.90;94.30
6690;DHT22;3382;51.576;8.076;2023-04-03T10:17:22;8.70;94.10
6690;DHT22;3382;51.576;8.076;2023-04-03T10:25:33;8.90;93.70
6690;DHT22;3382;51.576;8.076;2023-04-03T10:49:33;8.00;88.90
6690;DHT22;3382;51.576;8.076;2023-04-03T10:52:13;8.00;91.30
6690;DHT22;3382;51.576;8.076;2023-04-03T10:57:30;8.30;91.10
6690;DHT22;3382;51.576;8.076;2023-04-03T11:00:01;8.00;90.60
6690;DHT22;3382;51.576;8.076;2023-04-03T11:02:28;8.10;90.50
6690;DHT22;3382;51.576;8.076;2023-04-03T11:05:01;8.10;91.60
6690;DHT22;3382;51.576;8.076;2023-04-03T11:07:32;8.20;91.40
6690;DHT22;3382;51.576;8.076;2023-04-03T11:10:32;8.30;91.10
6690;DHT22;3382;51.576;8.076;2023-04-03T11:15:58;8.80;91.40
6690;DHT22;3382;51.576;8.076;2023-04-03T11:18:49;8.90;92.30
6690;DHT22;3382;51.576;8.076;2023-04-03T11:22:04;8.80;90.70
6690;DHT22;3382;51.576;8.076;2023-04-03T11:24:22;8.60;90.80
6690;DHT22;3382;51.576;8.076;2023-04-03T11:26:49;8.60;91.30
6690;DHT22;3382;51.576;8.076;2023-04-03T11:29:19;8.20;90.00
6690;DHT22;3382;51.576;8.076;2023-04-03T11:36:49;8.20;89.90
6690;DHT22;3382;51.576;8.076;2023-04-03T11:41:47;8.20;92.30
6690;DHT22;3382;51.576;8.076;2023-04-03T11:44:30;8.60;93.80
6690;DHT22;3382;51.576;8.076;2023-04-03T11:46:58;8.70;93.30
6690;DHT22;3382;51.576;8.076;2023-04-03T11:49:59;8.30;90.00
6690;DHT22;3382;51.576;8.076;2023-04-03T12:16:22;8.10;91.10
6690;DHT22;3382;51.576;8.076;2023-04-03T12:48:46;8.70;91.00
6690;DHT22;3382;51.576;8.076;2023-04-03T12:51:21;8.90;91.60
6690;DHT22;3382;51.576;8.076;2023-04-03T12:53:49;8.60;90.50
6690;DHT22;3382;51.576;8.076;2023-04-03T12:56:27;8.60;92.30
6690;DHT22;3382;51.576;8.076;2023-04-03T12:58:56;8.80;93.10
6690;DHT22;3382;51.576;8.076;2023-04-03T13:01:26;8.70;92.20
6690;DHT22;3382;51.576;8.076;2023-04-03T13:03:54;8.60;92.00
6690;DHT22;3382;51.576;8.076;2023-04-03T13:06:32;8.30;91.20
6690;DHT22;3382;51.576;8.076;2023-04-03T13:09:01;8.30;92.30
6690;DHT22;3382;51.576;8.076;2023-04-03T13:11:47;8.30;92.50
6690;DHT22;3382;51.576;8.076;2023-04-03T13:14:21;8.30;92.40
6690;DHT22;3382;51.576;8.076;2023-04-03T13:16:59;8.60;94.00
6690;DHT22;3382;51.576;8.076;2023-04-03T13:19:27;8.90;92.60
6690;DHT22;3382;51.576;8.076;2023-04-03T13:22:02;8.70;91.30
6690;DHT22;3382;51.576;8.076;2023-04-03T13:24:31;8.70;91.00
6690;DHT22;3382;51.576;8.076;2023-04-03T13:26:58;8.70;90.50
6690;DHT22;3382;51.576;8.076;2023-04-03T13:29:33;8.90;91.70
6690;DHT22;3382;51.576;8.076;2023-04-03T13:32:00;8.50;90.50
6690;DHT22;3382;51.576;8.076;2023-04-03T13:34:29;8.60;91.30
6690;DHT22;3382;51.576;8.076;2023-04-03T13:37:01;8.70;92.60
6690;DHT22;3382;51.576;8.076;2023-04-03T13:39:34;8.60;91.80
6690;DHT22;3382;51.576;8.076;2023-04-03T13:42:25;8.40;92.20
6690;DHT22;3382;51.576;8.076;2023-04-03T13:44:49;8.50;94.20
6690;DHT22;3382;51.576;8.076;2023-04-03T13:47:20;9.30;99.90
6690;DHT22;3382;51.576;8.076;2023-04-03T13:50:04;10.20;99.90
6690;DHT22;3382;51.576;8.076;2023-04-03T13:52:55;9.30;94.90
6690;DHT22;3382;51.576;8.076;2023-04-03T13:55:32;8.80;94.10
6690;DHT22;3382;51.576;8.076;2023-04-03T13:58:18;8.50;94.40
6690;DHT22;3382;51.576;8.076;2023-04-03T14:00:49;8.50;94.70
6690;DHT22;3382;51.576;8.076;2023-04-03T14:05:49;8.60;93.90
6690;DHT22;3382;51.576;8.076;2023-04-03T14:08:15;8.40;92.90
6690;DHT22;3382;51.576;8.076;2023-04-03T14:10:41;8.10;93.40
6690;DHT22;3382;51.576;8.076;2023-04-03T14:13:11;8.10;93.70
6690;DHT22;3382;51.576;8.076;2023-04-03T14:15:37;8.20;94.10
6690;DHT22;3382;51.576;8.076;2023-04-03T14:18:03;8.30;94.10
6690;DHT22;3382;51.576;8.076;2023-04-03T14:20:28;8.40;94.60
6690;DHT22;3382;51.576;8.076;2023-04-03T14:22:54;8.40;93.40
6690;DHT22;3382;51.576;8.076;2023-04-03T14:25:21;8.30;92.90
6690;DHT22;3382;51.576;8.076;2023-04-03T14:27:52;8.30;93.50
6690;DHT22;3382;51.576;8.076;2023-04-03T14:30:28;8.40;93.90
6690;DHT22;3382;51.576;8.076;2023-04-03T14:32:54;8.50;94.80
6690;DHT22;3382;51.576;8.076;2023-04-03T14:35:21;8.40;93.60
6690;DHT22;3382;51.576;8.076;2023-04-03T14:37:48;8.30;94.20
6690;DHT22;3382;51.576;8.076;2023-04-03T14:40:20;8.20;93.60
6690;DHT22;3382;51.576;8.076;2023-04-03T14:42:46;8.20;94.00
6690;DHT22;3382;51.576;8.076;2023-04-03T14:45:14;8.20;93.60
6690;DHT22;3382;51.576;8.076;2023-04-03T14:47:46;8.20;93.20
6690;DHT22;3382;51.576;8.076;2023-04-03T14:50:23;8.10;92.80
6690;DHT22;3382;51.576;8.076;2023-04-03T14:52:51;8.10;93.70
6690;DHT22;3382;51.576;8.076;2023-04-03T14:55:21;8.10;92.90
6690;DHT22;3382;51.576;8.076;2023-04-03T14:57:47;8.30;93.80
6690;DHT22;3382;51.576;8.076;2023-04-03T15:00:15;8.40;93.60
6690;DHT22;3382;51.576;8.076;2023-04-03T15:02:41;8.50;93.00
6690;DHT22;3382;51.576;8.076;2023-04-03T15:05:09;8.20;91.40
6690;DHT22;3382;51.576;8.076;2023-04-03T15:07:38;8.20;92.00
6690;DHT22;3382;51.576;8.076;2023-04-03T15:12:47;8.40;92.40
6690;DHT22;3382;51.576;8.076;2023-04-03T15:15:14;8.50;92.20
6690;DHT22;3382;51.576;8.076;2023-04-03T15:17:41;8.30;93.00
6690;DHT22;3382;51.576;8.076;2023-04-03T15:20:16;8.20;92.90
6690;DHT22;3382;51.576;8.076;2023-04-03T15:22:41;8.10;93.60
6690;DHT22;3382;51.576;8.076;2023-04-03T15:25:08;8.00;92.50
6690;DHT22;3382;51.576;8.076;2023-04-03T15:27:34;8.10;93.50
6690;DHT22;3382;51.576;8.076;2023-04-03T15:30:00;8.10;93.00
6690;DHT22;3382;51.576;8.076;2023-04-03T15:32:25;8.20;93.10
6690;DHT22;3382;51.576;8.076;2023-04-03T15:34:51;8.20;91.90
6690;DHT22;3382;51.576;8.076;2023-04-03T15:37:17;8.10;91.50
6690;DHT22;3382;51.576;8.076;2023-04-03T15:39:42;8.00;91.30
6690;DHT22;3382;51.576;8.076;2023-04-03T15:42:08;7.90;90.80
6690;DHT22;3382;51.576;8.076;2023-04-03T15:44:34;7.90;91.20
6690;DHT22;3382;51.576;8.076;2023-04-03T15:47:01;8.00;91.20
6690;DHT22;3382;51.576;8.076;2023-04-03T15:49:27;8.00;91.50
6690;DHT22;3382;51.576;8.076;2023-04-03T15:51:53;8.10;91.70
6690;DHT22;3382;51.576;8.076;2023-04-03T15:54:22;8.00;91.60
6690;DHT22;3382;51.576;8.076;2023-04-03T15:56:49;8.00;91.70
6690;DHT22;3382;51.576;8.076;2023-04-03T15:59:15;7.90;91.50
6690;DHT22;3382;51.576;8.076;2023-04-03T16:01:40;7.80;91.50
6690;DHT22;3382;51.576;8.076;2023-04-03T16:04:08;7.90;91.60
6690;DHT22;3382;51.576;8.076;2023-04-03T16:06:34;7.90;92.00
6690;DHT22;3382;51.576;8.076;2023-04-03T16:09:00;7.90;92.20
6690;DHT22;3382;51.576;8.076;2023-04-03T16:11:26;8.00;92.10
6690;DHT22;3382;51.576;8.076;2023-04-03T16:13:53;8.00;91.70
6690;DHT22;3382;51.576;8.076;2023-04-03T16:16:19;8.00;91.60
6690;DHT22;3382;51.576;8.076;2023-04-03T16:18:44;8.00;91.40
6690;DHT22;3382;51.576;8.076;2023-04-03T16:21:12;8.00;91.60
6690;DHT22;3382;51.576;8.076;2023-04-03T16:23:39;8.00;92.00
6690;DHT22;3382;51.576;8.076;2023-04-03T16:26:05;7.90;91.90
6690;DHT22;3382;51.576;8.076;2023-04-03T16:28:31;7.80;92.20
6690;DHT22;3382;51.576;8.076;2023-04-03T16:30:57;7.80;92.20
6690;DHT22;3382;51.576;8.076;2023-04-03T16:33:24;7.80;92.60
6690;DHT22;3382;51.576;8.076;2023-04-03T16:35:50;7.80;92.00
6690;DHT22;3382;51.576;8.076;2023-04-03T16:38:17;7.80;92.00
6690;DHT22;3382;51.576;8.076;2023-04-03T16:40:44;7.90;92.60
6690;DHT22;3382;51.576;8.076;2023-04-03T16:43:10;8.00;92.10
6690;DHT22;3382;51.576;8.076;2023-04-03T16:45:36;8.00;91.70
6690;DHT22;3382;51.576;8.076;2023-04-03T16:48:02;7.80;91.50
6690;DHT22;3382;51.576;8.076;2023-04-03T16:50:28;7.70;91.10
6690;DHT22;3382;51.576;8.076;2023-04-03T16:52:54;7.70;91.40
6690;DHT22;3382;51.576;8.076;2023-04-03T16:55:19;7.60;91.10
6690;DHT22;3382;51.576;8.076;2023-04-03T16:57:46;7.50;91.20
6690;DHT22;3382;51.576;8.076;2023-04-03T17:00:12;7.50;91.30
6690;DHT22;3382;51.576;8.076;2023-04-03T17:02:39;7.60;91.70
6690;DHT22;3382;51.576;8.076;2023-04-03T17:05:05;7.70;92.10
6690;DHT22;3382;51.576;8.076;2023-04-03T17:07:31;7.80;92.30
6690;DHT22;3382;51.576;8.076;2023-04-03T17:09:57;7.70;92.10
6690;DHT22;3382;51.576;8.076;2023-04-03T17:12:23;7.60;92.20
6690;DHT22;3382;51.576;8.076;2023-04-03T17:14:48;7.50;91.70
6690;DHT22;3382;51.576;8.076;2023-04-03T17:17:15;7.30;91.90
6690;DHT22;3382;51.576;8.076;2023-04-03T17:19:41;7.30;92.30
6690;DHT22;3382;51.576;8.076;2023-04-03T17:22:08;7.40;92.60
6690;DHT22;3382;51.576;8.076;2023-04-03T17:24:34;7.40;92.80
6690;DHT22;3382;51.576;8.076;2023-04-03T17:27:01;7.50;92.80
6690;DHT22;3382;51.576;8.076;2023-04-03T17:29:26;7.50;93.00
6690;DHT22;3382;51.576;8.076;2023-04-03T17:31:52;7.60;93.10
6690;DHT22;3382;51.576;8.076;2023-04-03T17:34:17;7.60;93.00
6690;DHT22;3382;51.576;8.076;2023-04-03T17:36:43;7.60;93.10
6690;DHT22;3382;51.576;8.076;2023-04-03T17:39:09;7.70;93.30
6690;DHT22;3382;51.576;8.076;2023-04-03T17:41:35;7.60;93.10
6690;DHT22;3382;51.576;8.076;2023-04-03T17:44:00;7.60;93.00
6690;DHT22;3382;51.576;8.076;2023-04-03T17:46:26;7.50;93.00
6690;DHT22;3382;51.576;8.076;2023-04-03T17:48:52;7.60;93.00
6690;DHT22;3382;51.576;8.076;2023-04-03T17:51:20;7.50;93.00
6690;DHT22;3382;51.576;8.076;2023-04-03T17:53:47;7.50;93.00
6690;DHT22;3382;51.576;8.076;2023-04-03T17:56:15;7.50;93.00
6690;DHT22;3382;51.576;8.076;2023-04-03T17:58:41;7.40;93.10
6690;DHT22;3382;51.576;8.076;2023-04-03T18:01:09;7.40;93.00
6690;DHT22;3382;51.576;8.076;2023-04-03T18:03:35;7.40;93.20
6690;DHT22;3382;51.576;8.076;2023-04-03T18:06:03;7.30;93.40
6690;DHT22;3382;51.576;8.076;2023-04-03T18:08:32;7.30;93.60
6690;DHT22;3382;51.576;8.076;2023-04-03T18:10:58;7.30;93.60
6690;DHT22;3382;51.576;8.076;2023-04-03T18:13:24;7.20;93.80
6690;DHT22;3382;51.576;8.076;2023-04-03T18:15:50;7.20;94.50
6690;DHT22;3382;51.576;8.076;2023-04-03T18:18:16;7.20;94.40
6690;DHT22;3382;51.576;8.076;2023-04-03T18:20:42;7.20;94.70
6690;DHT22;3382;51.576;8.076;2023-04-03T18:23:07;7.10;94.80
6690;DHT22;3382;51.576;8.076;2023-04-03T18:25:33;7.10;95.00
6690;DHT22;3382;51.576;8.076;2023-04-03T18:28:01;7.10;95.50
6690;DHT22;3382;51.576;8.076;2023-04-03T18:30:31;7.10;95.30
6690;DHT22;3382;51.576;8.076;2023-04-03T18:32:58;7.00;95.40
6690;DHT22;3382;51.576;8.076;2023-04-03T18:35:23;7.00;95.50
6690;DHT22;3382;51.576;8.076;2023-04-03T18:37:49;6.90;95.60
6690;DHT22;3382;51.576;8.076;2023-04-03T18:40:15;6.90;95.80
6690;DHT22;3382;51.576;8.076;2023-04-03T18:42:41;6.80;95.90
6690;DHT22;3382;51.576;8.076;2023-04-03T18:45:09;6.80;96.40
6690;DHT22;3382;51.576;8.076;2023-04-03T18:47:35;6.80;96.30
6690;DHT22;3382;51.576;8.076;2023-04-03T18:50:03;6.80;96.40
6690;DHT22;3382;51.576;8.076;2023-04-03T18:52:29;6.70;96.40